sensor_id;sensor_type;location;lat;lon;timestamp;P1;durP1;ratioP1;P2;durP2;ratioP2
21905;SDS011;11117;48.644;9.006;2024-03-06T00:02:07;7.60;;;5.10;;
21905;SDS011;11117;48.644;9.006;2024-03-06T00:04:33;8.87;;;5.20;;
21905;SDS011;11117;48.644;9.006;2024-03-06T00:06:59;10.53;;;4.93;;
21905;SDS011;11117;48.644;9.006;2024-03-06T00:09:25;6.83;;;4.67;;
21905;SDS011;11117;48.644;9.006;2024-03-06T00:11:51;12.37;;;7.30;;
21905;SDS011;11117;48.644;9.006;2024-03-06T00:14:17;6.67;;;4.03;;
21905;SDS011;11117;48.644;9.006;2024-03-06T00:16:42;7.80;;;5.57;;
21905;SDS011;11117;48.644;9.006;2024-03-06T00:19:08;6.33;;;4.13;;
21905;SDS011;11117;48.644;9.006;2024-03-06T00:21:34;8.53;;;4.67;;
21905;SDS011;11117;48.644;9.006;2024-03-06T00:24:00;14.00;;;7.60;;
21905;SDS011;11117;48.644;9.006;2024-03-06T00:26:26;9.00;;;6.10;;
21905;SDS011;11117;48.644;9.006;2024-03-06T00:28:51;8.50;;;5.83;;
21905;SDS011;11117;48.644;9.006;2024-03-06T00:31:17;9.43;;;6.27;;
21905;SDS011;11117;48.644;9.006;2024-03-06T00:33:42;7.53;;;4.60;;
21905;SDS011;11117;48.644;9.006;2024-03-06T00:36:08;7.67;;;4.50;;
21905;SDS011;11117;48.644;9.006;2024-03-06T00:38:33;8.13;;;4.53;;
21905;SDS011;11117;48.644;9.006;2024-03-06T00:40:59;9.57;;;4.30;;
21905;SDS011;11117;48.644;9.006;2024-03-06T00:43:24;8.47;;;4.17;;
21905;SDS011;11117;48.644;9.006;2024-03-06T00:45:50;8.13;;;3.70;;
21905;SDS011;11117;48.644;9.006;2024-03-06T00:48:16;8.77;;;3.67;;
21905;SDS011;11117;48.644;9.006;2024-03-06T00:50:41;5.47;;;3.73;;
21905;SDS011;11117;48.644;9.006;2024-03-06T00:53:07;5.40;;;3.33;;
21905;SDS011;11117;48.644;9.006;2024-03-06T00:55:32;7.20;;;3.70;;
21905;SDS011;11117;48.644;9.006;2024-03-06T00:57:58;6.23;;;3.83;;
21905;SDS011;11117;48.644;9.006;2024-03-06T01:00:23;8.40;;;4.03;;
21905;SDS011;11117;48.644;9.006;2024-03-06T01:02:49;8.00;;;3.93;;
21905;SDS011;11117;48.644;9.006;2024-03-06T01:05:14;7.83;;;4.13;;
21905;SDS011;11117;48.644;9.006;2024-03-06T01:07:41;7.60;;;3.93;;
21905;SDS011;11117;48.644;9.006;2024-03-06T01:10:07;7.13;;;4.00;;
21905;SDS011;11117;48.644;9.006;2024-03-06T01:12:33;6.03;;;4.00;;
21905;SDS011;11117;48.644;9.006;2024-03-06T01:14:58;8.10;;;4.03;;
21905;SDS011;11117;48.644;9.006;2024-03-06T01:17:28;6.20;;;3.53;;
21905;SDS011;11117;48.644;9.006;2024-03-06T01:19:54;9.23;;;3.80;;
21905;SDS011;11117;48.644;9.006;2024-03-06T01:22:19;6.17;;;3.73;;
21905;SDS011;11117;48.644;9.006;2024-03-06T01:24:45;6.87;;;3.67;;
21905;SDS011;11117;48.644;9.006;2024-03-06T01:27:11;6.43;;;4.20;;
21905;SDS011;11117;48.644;9.006;2024-03-06T01:29:36;7.33;;;4.30;;
21905;SDS011;11117;48.644;9.006;2024-03-06T01:32:02;7.00;;;4.43;;
21905;SDS011;11117;48.644;9.006;2024-03-06T01:34:27;7.80;;;3.97;;
21905;SDS011;11117;48.644;9.006;2024-03-06T01:36:53;10.60;;;4.60;;
21905;SDS011;11117;48.644;9.006;2024-03-06T01:39:19;7.27;;;4.10;;
21905;SDS011;11117;48.644;9.006;2024-03-06T01:41:48;5.60;;;3.83;;
21905;SDS011;11117;48.644;9.006;2024-03-06T01:44:15;8.43;;;4.00;;
21905;SDS011;11117;48.644;9.006;2024-03-06T01:46:42;8.47;;;4.30;;
21905;SDS011;11117;48.644;9.006;2024-03-06T01:49:08;7.53;;;4.33;;
21905;SDS011;11117;48.644;9.006;2024-03-06T01:51:34;9.67;;;4.33;;
21905;SDS011;11117;48.644;9.006;2024-03-06T01:54:01;9.53;;;4.70;;
21905;SDS011;11117;48.644;9.006;2024-03-06T01:56:27;12.07;;;4.80;;
21905;SDS011;11117;48.644;9.006;2024-03-06T01:58:53;9.33;;;4.70;;
21905;SDS011;11117;48.644;9.006;2024-03-06T02:01:19;7.67;;;4.90;;
21905;SDS011;11117;48.644;9.006;2024-03-06T02:03:45;9.03;;;4.90;;
21905;SDS011;11117;48.644;9.006;2024-03-06T02:06:11;8.30;;;4.53;;
21905;SDS011;11117;48.644;9.006;2024-03-06T02:08:38;7.87;;;4.67;;
21905;SDS011;11117;48.644;9.006;2024-03-06T02:11:04;7.67;;;4.27;;
21905;SDS011;11117;48.644;9.006;2024-03-06T02:13:30;10.37;;;4.30;;
21905;SDS011;11117;48.644;9.006;2024-03-06T02:15:56;9.13;;;4.70;;
21905;SDS011;11117;48.644;9.006;2024-03-06T02:18:21;7.13;;;4.13;;
21905;SDS011;11117;48.644;9.006;2024-03-06T02:20:47;11.37;;;4.83;;
21905;SDS011;11117;48.644;9.006;2024-03-06T02:23:13;7.23;;;4.47;;
21905;SDS011;11117;48.644;9.006;2024-03-06T02:25:38;7.03;;;4.27;;
21905;SDS011;11117;48.644;9.006;2024-03-06T02:28:04;6.77;;;4.60;;
21905;SDS011;11117;48.644;9.006;2024-03-06T02:30:30;7.80;;;4.33;;
21905;SDS011;11117;48.644;9.006;2024-03-06T02:32:55;8.23;;;4.43;;
21905;SDS011;11117;48.644;9.006;2024-03-06T02:35:21;5.73;;;4.03;;
21905;SDS011;11117;48.644;9.006;2024-03-06T02:37:47;8.60;;;4.23;;
21905;SDS011;11117;48.644;9.006;2024-03-06T02:40:12;8.53;;;4.30;;
21905;SDS011;11117;48.644;9.006;2024-03-06T02:42:38;8.27;;;4.60;;
21905;SDS011;11117;48.644;9.006;2024-03-06T02:45:04;7.67;;;4.40;;
21905;SDS011;11117;48.644;9.006;2024-03-06T02:47:30;7.60;;;4.47;;
21905;SDS011;11117;48.644;9.006;2024-03-06T02:49:56;8.37;;;4.33;;
21905;SDS011;11117;48.644;9.006;2024-03-06T02:52:22;9.27;;;4.50;;
21905;SDS011;11117;48.644;9.006;2024-03-06T02:54:48;8.13;;;4.57;;
21905;SDS011;11117;48.644;9.006;2024-03-06T02:57:13;7.37;;;4.17;;
21905;SDS011;11117;48.644;9.006;2024-03-06T02:59:39;6.90;;;4.60;;
21905;SDS011;11117;48.644;9.006;2024-03-06T03:02:05;10.40;;;4.20;;
21905;SDS011;11117;48.644;9.006;2024-03-06T03:04:30;7.63;;;4.50;;
21905;SDS011;11117;48.644;9.006;2024-03-06T03:06:56;8.07;;;5.10;;
21905;SDS011;11117;48.644;9.006;2024-03-06T03:09:22;9.27;;;5.07;;
21905;SDS011;11117;48.644;9.006;2024-03-06T03:11:47;7.73;;;4.87;;
21905;SDS011;11117;48.644;9.006;2024-03-06T03:14:13;6.90;;;5.10;;
21905;SDS011;11117;48.644;9.006;2024-03-06T03:16:38;7.40;;;4.73;;
21905;SDS011;11117;48.644;9.006;2024-03-06T03:19:04;8.00;;;4.80;;
21905;SDS011;11117;48.644;9.006;2024-03-06T03:21:29;8.30;;;4.73;;
21905;SDS011;11117;48.644;9.006;2024-03-06T03:23:55;9.13;;;4.50;;
21905;SDS011;11117;48.644;9.006;2024-03-06T03:26:20;8.60;;;4.67;;
21905;SDS011;11117;48.644;9.006;2024-03-06T03:28:46;7.17;;;4.20;;
21905;SDS011;11117;48.644;9.006;2024-03-06T03:31:12;6.33;;;3.90;;
21905;SDS011;11117;48.644;9.006;2024-03-06T03:33:40;11.90;;;4.30;;
21905;SDS011;11117;48.644;9.006;2024-03-06T03:36:06;8.40;;;4.70;;
21905;SDS011;11117;48.644;9.006;2024-03-06T03:38:33;8.33;;;4.90;;
21905;SDS011;11117;48.644;9.006;2024-03-06T03:41:02;6.90;;;4.57;;
21905;SDS011;11117;48.644;9.006;2024-03-06T03:43:31;8.53;;;4.00;;
21905;SDS011;11117;48.644;9.006;2024-03-06T03:45:57;9.43;;;4.30;;
21905;SDS011;11117;48.644;9.006;2024-03-06T03:48:22;9.63;;;4.70;;
21905;SDS011;11117;48.644;9.006;2024-03-06T03:50:48;11.10;;;4.50;;
21905;SDS011;11117;48.644;9.006;2024-03-06T03:53:13;13.27;;;4.83;;
21905;SDS011;11117;48.644;9.006;2024-03-06T03:55:39;9.30;;;4.80;;
21905;SDS011;11117;48.644;9.006;2024-03-06T03:58:05;9.30;;;4.17;;
21905;SDS011;11117;48.644;9.006;2024-03-06T04:00:30;7.27;;;4.03;;
21905;SDS011;11117;48.644;9.006;2024-03-06T04:02:56;10.97;;;4.70;;
21905;SDS011;11117;48.644;9.006;2024-03-06T04:05:22;8.07;;;5.00;;
21905;SDS011;11117;48.644;9.006;2024-03-06T04:07:48;6.93;;;4.40;;
21905;SDS011;11117;48.644;9.006;2024-03-06T04:10:13;9.83;;;5.23;;
21905;SDS011;11117;48.644;9.006;2024-03-06T04:12:39;10.93;;;5.40;;
21905;SDS011;11117;48.644;9.006;2024-03-06T04:15:04;12.60;;;4.93;;
21905;SDS011;11117;48.644;9.006;2024-03-06T04:17:30;7.53;;;5.10;;
21905;SDS011;11117;48.644;9.006;2024-03-06T04:19:56;7.37;;;4.40;;
21905;SDS011;11117;48.644;9.006;2024-03-06T04:22:22;7.13;;;4.33;;
21905;SDS011;11117;48.644;9.006;2024-03-06T04:24:48;11.93;;;5.30;;
21905;SDS011;11117;48.644;9.006;2024-03-06T04:27:14;8.73;;;4.70;;
21905;SDS011;11117;48.644;9.006;2024-03-06T04:29:39;10.93;;;5.47;;
21905;SDS011;11117;48.644;9.006;2024-03-06T04:32:05;10.13;;;5.00;;
21905;SDS011;11117;48.644;9.006;2024-03-06T04:34:30;9.70;;;5.10;;
21905;SDS011;11117;48.644;9.006;2024-03-06T04:36:56;10.77;;;5.10;;
21905;SDS011;11117;48.644;9.006;2024-03-06T04:39:22;9.77;;;5.53;;
21905;SDS011;11117;48.644;9.006;2024-03-06T04:41:47;20.80;;;9.10;;
21905;SDS011;11117;48.644;9.006;2024-03-06T04:44:13;21.20;;;8.43;;
21905;SDS011;11117;48.644;9.006;2024-03-06T04:46:38;14.57;;;6.83;;
21905;SDS011;11117;48.644;9.006;2024-03-06T04:49:04;9.50;;;5.13;;
21905;SDS011;11117;48.644;9.006;2024-03-06T04:51:29;9.77;;;5.30;;
21905;SDS011;11117;48.644;9.006;2024-03-06T04:53:55;10.00;;;5.73;;
21905;SDS011;11117;48.644;9.006;2024-03-06T04:56:20;9.37;;;5.40;;
21905;SDS011;11117;48.644;9.006;2024-03-06T04:58:46;10.50;;;5.57;;
21905;SDS011;11117;48.644;9.006;2024-03-06T05:01:12;12.77;;;5.23;;
21905;SDS011;11117;48.644;9.006;2024-03-06T05:03:37;12.17;;;4.70;;
21905;SDS011;11117;48.644;9.006;2024-03-06T05:06:04;15.77;;;6.17;;
21905;SDS011;11117;48.644;9.006;2024-03-06T05:08:30;13.47;;;5.90;;
21905;SDS011;11117;48.644;9.006;2024-03-06T05:10:56;9.67;;;5.73;;
21905;SDS011;11117;48.644;9.006;2024-03-06T05:13:21;11.27;;;5.93;;
21905;SDS011;11117;48.644;9.006;2024-03-06T05:15:47;12.43;;;6.40;;
21905;SDS011;11117;48.644;9.006;2024-03-06T05:18:13;12.40;;;6.17;;
21905;SDS011;11117;48.644;9.006;2024-03-06T05:20:38;15.90;;;6.27;;
21905;SDS011;11117;48.644;9.006;2024-03-06T05:23:04;12.77;;;6.40;;
21905;SDS011;11117;48.644;9.006;2024-03-06T05:25:30;9.87;;;6.07;;
21905;SDS011;11117;48.644;9.006;2024-03-06T05:27:55;10.60;;;6.30;;
21905;SDS011;11117;48.644;9.006;2024-03-06T05:30:21;9.60;;;6.00;;
21905;SDS011;11117;48.644;9.006;2024-03-06T05:32:46;11.10;;;5.90;;
21905;SDS011;11117;48.644;9.006;2024-03-06T05:35:12;11.37;;;5.23;;
21905;SDS011;11117;48.644;9.006;2024-03-06T05:37:38;10.40;;;5.23;;
21905;SDS011;11117;48.644;9.006;2024-03-06T05:40:04;11.50;;;5.40;;
21905;SDS011;11117;48.644;9.006;2024-03-06T05:42:30;11.47;;;5.43;;
21905;SDS011;11117;48.644;9.006;2024-03-06T05:44:56;86.10;;;6.87;;
21905;SDS011;11117;48.644;9.006;2024-03-06T05:47:26;11.37;;;5.30;;
21905;SDS011;11117;48.644;9.006;2024-03-06T05:49:52;9.03;;;5.17;;
21905;SDS011;11117;48.644;9.006;2024-03-06T05:52:17;9.43;;;5.77;;
21905;SDS011;11117;48.644;9.006;2024-03-06T05:54:43;8.63;;;5.17;;
21905;SDS011;11117;48.644;9.006;2024-03-06T05:57:08;8.73;;;5.47;;
21905;SDS011;11117;48.644;9.006;2024-03-06T05:59:34;14.50;;;5.77;;
21905;SDS011;11117;48.644;9.006;2024-03-06T06:02:00;12.17;;;7.17;;
21905;SDS011;11117;48.644;9.006;2024-03-06T06:04:25;11.60;;;5.83;;
21905;SDS011;11117;48.644;9.006;2024-03-06T06:06:51;17.00;;;6.40;;
21905;SDS011;11117;48.644;9.006;2024-03-06T06:09:16;17.37;;;6.50;;
21905;SDS011;11117;48.644;9.006;2024-03-06T06:11:42;10.30;;;6.20;;
21905;SDS011;11117;48.644;9.006;2024-03-06T06:14:08;16.20;;;6.70;;
21905;SDS011;11117;48.644;9.006;2024-03-06T06:16:37;13.53;;;6.20;;
21905;SDS011;11117;48.644;9.006;2024-03-06T06:19:04;12.80;;;7.37;;
21905;SDS011;11117;48.644;9.006;2024-03-06T06:21:30;15.87;;;6.40;;
21905;SDS011;11117;48.644;9.006;2024-03-06T06:23:55;10.80;;;5.67;;
21905;SDS011;11117;48.644;9.006;2024-03-06T06:26:21;11.97;;;6.27;;
21905;SDS011;11117;48.644;9.006;2024-03-06T06:28:47;12.23;;;6.47;;
21905;SDS011;11117;48.644;9.006;2024-03-06T06:31:12;13.63;;;7.10;;
21905;SDS011;11117;48.644;9.006;2024-03-06T06:33:38;11.97;;;6.73;;
21905;SDS011;11117;48.644;9.006;2024-03-06T06:36:03;12.77;;;6.57;;
21905;SDS011;11117;48.644;9.006;2024-03-06T06:38:29;13.13;;;6.13;;
21905;SDS011;11117;48.644;9.006;2024-03-06T06:40:55;14.77;;;6.43;;
21905;SDS011;11117;48.644;9.006;2024-03-06T06:43:21;15.70;;;6.20;;
21905;SDS011;11117;48.644;9.006;2024-03-06T06:45:47;12.70;;;6.13;;
21905;SDS011;11117;48.644;9.006;2024-03-06T06:48:12;11.87;;;5.10;;
21905;SDS011;11117;48.644;9.006;2024-03-06T06:50:38;10.67;;;5.73;;
21905;SDS011;11117;48.644;9.006;2024-03-06T06:53:03;10.30;;;5.63;;
21905;SDS011;11117;48.644;9.006;2024-03-06T06:55:29;10.57;;;5.67;;
21905;SDS011;11117;48.644;9.006;2024-03-06T06:57:55;10.03;;;5.43;;
21905;SDS011;11117;48.644;9.006;2024-03-06T07:00:20;9.77;;;5.07;;
21905;SDS011;11117;48.644;9.006;2024-03-06T07:02:46;15.53;;;5.40;;
21905;SDS011;11117;48.644;9.006;2024-03-06T07:05:11;9.57;;;5.03;;
21905;SDS011;11117;48.644;9.006;2024-03-06T07:07:37;14.03;;;5.30;;
21905;SDS011;11117;48.644;9.006;2024-03-06T07:10:03;11.00;;;5.40;;
21905;SDS011;11117;48.644;9.006;2024-03-06T07:12:30;11.27;;;5.40;;
21905;SDS011;11117;48.644;9.006;2024-03-06T07:14:56;12.07;;;5.60;;
21905;SDS011;11117;48.644;9.006;2024-03-06T07:17:25;8.97;;;5.20;;
21905;SDS011;11117;48.644;9.006;2024-03-06T07:19:51;12.37;;;5.13;;
21905;SDS011;11117;48.644;9.006;2024-03-06T07:22:16;10.53;;;5.47;;
21905;SDS011;11117;48.644;9.006;2024-03-06T07:24:42;10.50;;;4.77;;
21905;SDS011;11117;48.644;9.006;2024-03-06T07:27:07;11.57;;;5.00;;
21905;SDS011;11117;48.644;9.006;2024-03-06T07:29:33;8.73;;;5.07;;
21905;SDS011;11117;48.644;9.006;2024-03-06T07:31:58;10.50;;;5.20;;
21905;SDS011;11117;48.644;9.006;2024-03-06T07:34:24;12.83;;;5.83;;
21905;SDS011;11117;48.644;9.006;2024-03-06T07:36:50;14.80;;;5.87;;
21905;SDS011;11117;48.644;9.006;2024-03-06T07:39:21;12.33;;;6.20;;
21905;SDS011;11117;48.644;9.006;2024-03-06T07:41:47;13.13;;;5.90;;
21905;SDS011;11117;48.644;9.006;2024-03-06T07:44:12;12.77;;;6.13;;
21905;SDS011;11117;48.644;9.006;2024-03-06T07:46:38;15.60;;;6.77;;
21905;SDS011;11117;48.644;9.006;2024-03-06T07:49:04;10.90;;;6.50;;
21905;SDS011;11117;48.644;9.006;2024-03-06T07:51:30;15.83;;;6.70;;
21905;SDS011;11117;48.644;9.006;2024-03-06T07:53:56;11.10;;;6.10;;
21905;SDS011;11117;48.644;9.006;2024-03-06T07:56:21;13.80;;;6.10;;
21905;SDS011;11117;48.644;9.006;2024-03-06T07:58:47;11.07;;;5.87;;
21905;SDS011;11117;48.644;9.006;2024-03-06T08:01:12;10.87;;;5.20;;
21905;SDS011;11117;48.644;9.006;2024-03-06T08:03:38;10.93;;;5.93;;
21905;SDS011;11117;48.644;9.006;2024-03-06T08:06:04;11.40;;;5.87;;
21905;SDS011;11117;48.644;9.006;2024-03-06T08:08:30;12.73;;;4.80;;
21905;SDS011;11117;48.644;9.006;2024-03-06T08:10:56;11.53;;;5.37;;
21905;SDS011;11117;48.644;9.006;2024-03-06T08:13:21;9.63;;;4.70;;
21905;SDS011;11117;48.644;9.006;2024-03-06T08:15:47;9.63;;;5.20;;
21905;SDS011;11117;48.644;9.006;2024-03-06T08:18:12;11.33;;;4.70;;
21905;SDS011;11117;48.644;9.006;2024-03-06T08:20:38;9.70;;;4.57;;
21905;SDS011;11117;48.644;9.006;2024-03-06T08:23:04;9.40;;;4.33;;
21905;SDS011;11117;48.644;9.006;2024-03-06T08:25:29;11.03;;;4.70;;
21905;SDS011;11117;48.644;9.006;2024-03-06T08:27:55;12.37;;;4.80;;
21905;SDS011;11117;48.644;9.006;2024-03-06T08:30:20;7.80;;;4.40;;
21905;SDS011;11117;48.644;9.006;2024-03-06T08:32:46;9.70;;;4.83;;
21905;SDS011;11117;48.644;9.006;2024-03-06T08:35:12;10.27;;;4.90;;
21905;SDS011;11117;48.644;9.006;2024-03-06T08:37:41;7.67;;;4.37;;
21905;SDS011;11117;48.644;9.006;2024-03-06T08:40:07;11.43;;;4.80;;
21905;SDS011;11117;48.644;9.006;2024-03-06T08:42:33;6.30;;;3.70;;
21905;SDS011;11117;48.644;9.006;2024-03-06T08:44:59;7.17;;;4.33;;
21905;SDS011;11117;48.644;9.006;2024-03-06T08:47:27;10.00;;;4.53;;
21905;SDS011;11117;48.644;9.006;2024-03-06T08:49:52;8.70;;;3.97;;
21905;SDS011;11117;48.644;9.006;2024-03-06T08:52:18;8.30;;;4.27;;
21905;SDS011;11117;48.644;9.006;2024-03-06T08:54:44;10.80;;;4.27;;
21905;SDS011;11117;48.644;9.006;2024-03-06T08:57:10;8.33;;;4.40;;
21905;SDS011;11117;48.644;9.006;2024-03-06T08:59:35;8.10;;;4.50;;
21905;SDS011;11117;48.644;9.006;2024-03-06T09:02:14;11.00;;;4.80;;
21905;SDS011;11117;48.644;9.006;2024-03-06T09:04:43;9.00;;;4.20;;
21905;SDS011;11117;48.644;9.006;2024-03-06T09:07:09;8.77;;;4.37;;
21905;SDS011;11117;48.644;9.006;2024-03-06T09:09:35;5.83;;;4.07;;
21905;SDS011;11117;48.644;9.006;2024-03-06T09:12:02;8.07;;;4.00;;
21905;SDS011;11117;48.644;9.006;2024-03-06T09:14:32;7.83;;;3.70;;
21905;SDS011;11117;48.644;9.006;2024-03-06T09:16:58;7.07;;;3.53;;
21905;SDS011;11117;48.644;9.006;2024-03-06T09:19:24;8.20;;;4.27;;
21905;SDS011;11117;48.644;9.006;2024-03-06T09:21:49;6.80;;;3.27;;
21905;SDS011;11117;48.644;9.006;2024-03-06T09:24:15;6.03;;;3.47;;
21905;SDS011;11117;48.644;9.006;2024-03-06T09:26:40;6.77;;;4.00;;
21905;SDS011;11117;48.644;9.006;2024-03-06T09:29:06;8.13;;;4.20;;
21905;SDS011;11117;48.644;9.006;2024-03-06T09:31:32;8.63;;;4.43;;
21905;SDS011;11117;48.644;9.006;2024-03-06T09:33:57;8.30;;;4.70;;
21905;SDS011;11117;48.644;9.006;2024-03-06T09:36:23;7.90;;;4.73;;
21905;SDS011;11117;48.644;9.006;2024-03-06T09:38:49;7.57;;;4.60;;
21905;SDS011;11117;48.644;9.006;2024-03-06T09:41:14;6.60;;;4.30;;
21905;SDS011;11117;48.644;9.006;2024-03-06T09:43:40;9.87;;;5.27;;
21905;SDS011;11117;48.644;9.006;2024-03-06T09:46:05;9.83;;;5.67;;
21905;SDS011;11117;48.644;9.006;2024-03-06T09:48:32;8.57;;;5.50;;
21905;SDS011;11117;48.644;9.006;2024-03-06T09:51:00;9.80;;;5.40;;
21905;SDS011;11117;48.644;9.006;2024-03-06T09:53:26;10.57;;;5.97;;
21905;SDS011;11117;48.644;9.006;2024-03-06T09:55:52;13.10;;;6.03;;
21905;SDS011;11117;48.644;9.006;2024-03-06T09:58:19;10.40;;;6.73;;
21905;SDS011;11117;48.644;9.006;2024-03-06T10:00:45;9.33;;;6.77;;
21905;SDS011;11117;48.644;9.006;2024-03-06T10:03:12;13.40;;;7.33;;
21905;SDS011;11117;48.644;9.006;2024-03-06T10:05:38;13.87;;;7.00;;
21905;SDS011;11117;48.644;9.006;2024-03-06T10:08:04;13.57;;;7.80;;
21905;SDS011;11117;48.644;9.006;2024-03-06T10:10:30;15.20;;;8.17;;
21905;SDS011;11117;48.644;9.006;2024-03-06T10:12:56;12.80;;;7.57;;
21905;SDS011;11117;48.644;9.006;2024-03-06T10:15:22;15.20;;;7.93;;
21905;SDS011;11117;48.644;9.006;2024-03-06T10:17:48;14.70;;;8.00;;
21905;SDS011;11117;48.644;9.006;2024-03-06T10:20:17;15.00;;;8.20;;
21905;SDS011;11117;48.644;9.006;2024-03-06T10:22:48;12.77;;;7.60;;
21905;SDS011;11117;48.644;9.006;2024-03-06T10:25:14;11.10;;;7.93;;
21905;SDS011;11117;48.644;9.006;2024-03-06T10:27:42;13.83;;;7.50;;
21905;SDS011;11117;48.644;9.006;2024-03-06T10:30:08;9.90;;;5.83;;
21905;SDS011;11117;48.644;9.006;2024-03-06T10:32:33;10.97;;;6.40;;
21905;SDS011;11117;48.644;9.006;2024-03-06T10:34:59;16.63;;;8.70;;
21905;SDS011;11117;48.644;9.006;2024-03-06T10:37:28;13.67;;;7.80;;
21905;SDS011;11117;48.644;9.006;2024-03-06T10:39:54;12.60;;;6.77;;
21905;SDS011;11117;48.644;9.006;2024-03-06T10:42:28;12.83;;;7.30;;
21905;SDS011;11117;48.644;9.006;2024-03-06T10:44:55;12.47;;;8.47;;
21905;SDS011;11117;48.644;9.006;2024-03-06T10:47:26;12.73;;;6.90;;
21905;SDS011;11117;48.644;9.006;2024-03-06T10:49:53;14.73;;;9.07;;
21905;SDS011;11117;48.644;9.006;2024-03-06T10:52:27;12.47;;;8.90;;
21905;SDS011;11117;48.644;9.006;2024-03-06T10:54:55;14.57;;;10.37;;
21905;SDS011;11117;48.644;9.006;2024-03-06T10:57:27;15.67;;;10.13;;
21905;SDS011;11117;48.644;9.006;2024-03-06T10:59:55;17.47;;;11.23;;
21905;SDS011;11117;48.644;9.006;2024-03-06T11:02:25;14.63;;;8.23;;
21905;SDS011;11117;48.644;9.006;2024-03-06T11:04:53;16.40;;;10.60;;
21905;SDS011;11117;48.644;9.006;2024-03-06T11:07:19;17.90;;;11.93;;
21905;SDS011;11117;48.644;9.006;2024-03-06T11:09:44;19.57;;;12.67;;
21905;SDS011;11117;48.644;9.006;2024-03-06T11:12:10;19.53;;;13.33;;
21905;SDS011;11117;48.644;9.006;2024-03-06T11:14:36;25.23;;;14.63;;
21905;SDS011;11117;48.644;9.006;2024-03-06T11:17:07;20.87;;;12.97;;
21905;SDS011;11117;48.644;9.006;2024-03-06T11:20:19;21.63;;;14.00;;
21905;SDS011;11117;48.644;9.006;2024-03-06T11:28:12;24.97;;;13.77;;
21905;SDS011;11117;48.644;9.006;2024-03-06T11:30:48;21.90;;;13.30;;
21905;SDS011;11117;48.644;9.006;2024-03-06T11:33:44;22.30;;;14.60;;
21905;SDS011;11117;48.644;9.006;2024-03-06T11:41:17;25.77;;;15.23;;
21905;SDS011;11117;48.644;9.006;2024-03-06T11:43:43;25.87;;;14.63;;
21905;SDS011;11117;48.644;9.006;2024-03-06T11:46:09;25.60;;;14.00;;
21905;SDS011;11117;48.644;9.006;2024-03-06T11:48:38;23.27;;;15.90;;
21905;SDS011;11117;48.644;9.006;2024-03-06T11:51:04;27.13;;;17.20;;
21905;SDS011;11117;48.644;9.006;2024-03-06T11:53:30;28.00;;;17.50;;
21905;SDS011;11117;48.644;9.006;2024-03-06T11:55:57;29.13;;;18.67;;
21905;SDS011;11117;48.644;9.006;2024-03-06T11:58:26;28.97;;;18.43;;
21905;SDS011;11117;48.644;9.006;2024-03-06T12:00:51;32.50;;;19.87;;
21905;SDS011;11117;48.644;9.006;2024-03-06T12:03:19;30.63;;;18.90;;
21905;SDS011;11117;48.644;9.006;2024-03-06T12:05:45;27.77;;;17.80;;
21905;SDS011;11117;48.644;9.006;2024-03-06T12:08:11;29.23;;;18.27;;
21905;SDS011;11117;48.644;9.006;2024-03-06T12:10:37;28.77;;;17.10;;
21905;SDS011;11117;48.644;9.006;2024-03-06T12:13:03;29.60;;;19.57;;
21905;SDS011;11117;48.644;9.006;2024-03-06T12:15:29;34.80;;;19.83;;
21905;SDS011;11117;48.644;9.006;2024-03-06T12:17:54;32.57;;;18.83;;
21905;SDS011;11117;48.644;9.006;2024-03-06T12:20:20;30.23;;;18.20;;
21905;SDS011;11117;48.644;9.006;2024-03-06T12:22:49;37.27;;;20.23;;
21905;SDS011;11117;48.644;9.006;2024-03-06T12:25:23;31.27;;;19.87;;
21905;SDS011;11117;48.644;9.006;2024-03-06T12:27:49;34.97;;;19.20;;
21905;SDS011;11117;48.644;9.006;2024-03-06T12:30:16;27.93;;;17.60;;
21905;SDS011;11117;48.644;9.006;2024-03-06T12:33:01;33.73;;;19.97;;
21905;SDS011;11117;48.644;9.006;2024-03-06T12:35:27;37.60;;;19.90;;
21905;SDS011;11117;48.644;9.006;2024-03-06T12:37:52;29.63;;;19.03;;
21905;SDS011;11117;48.644;9.006;2024-03-06T12:40:19;30.20;;;16.67;;
21905;SDS011;11117;48.644;9.006;2024-03-06T12:42:45;35.50;;;20.50;;
21905;SDS011;11117;48.644;9.006;2024-03-06T12:45:10;34.07;;;19.13;;
21905;SDS011;11117;48.644;9.006;2024-03-06T12:47:36;35.53;;;20.20;;
21905;SDS011;11117;48.644;9.006;2024-03-06T12:50:02;34.03;;;20.63;;
21905;SDS011;11117;48.644;9.006;2024-03-06T12:52:27;31.17;;;16.83;;
21905;SDS011;11117;48.644;9.006;2024-03-06T12:54:53;34.10;;;20.00;;
21905;SDS011;11117;48.644;9.006;2024-03-06T12:57:19;37.10;;;20.63;;
21905;SDS011;11117;48.644;9.006;2024-03-06T12:59:44;32.03;;;18.03;;
21905;SDS011;11117;48.644;9.006;2024-03-06T13:02:10;46.80;;;24.00;;
21905;SDS011;11117;48.644;9.006;2024-03-06T13:04:35;33.70;;;14.20;;
21905;SDS011;11117;48.644;9.006;2024-03-06T13:07:01;29.33;;;16.87;;
21905;SDS011;11117;48.644;9.006;2024-03-06T13:09:26;31.27;;;19.10;;
21905;SDS011;11117;48.644;9.006;2024-03-06T13:11:52;25.90;;;16.80;;
21905;SDS011;11117;48.644;9.006;2024-03-06T13:14:17;26.10;;;15.80;;
21905;SDS011;11117;48.644;9.006;2024-03-06T13:16:43;25.03;;;15.03;;
21905;SDS011;11117;48.644;9.006;2024-03-06T13:19:08;24.13;;;13.60;;
21905;SDS011;11117;48.644;9.006;2024-03-06T13:21:34;30.10;;;15.77;;
21905;SDS011;11117;48.644;9.006;2024-03-06T13:23:59;23.60;;;14.50;;
21905;SDS011;11117;48.644;9.006;2024-03-06T13:26:25;22.43;;;12.53;;
21905;SDS011;11117;48.644;9.006;2024-03-06T13:28:51;24.23;;;14.70;;
21905;SDS011;11117;48.644;9.006;2024-03-06T13:31:16;26.27;;;16.63;;
21905;SDS011;11117;48.644;9.006;2024-03-06T13:33:42;28.53;;;16.53;;
21905;SDS011;11117;48.644;9.006;2024-03-06T13:36:07;20.47;;;11.93;;
21905;SDS011;11117;48.644;9.006;2024-03-06T13:38:33;26.43;;;15.97;;
21905;SDS011;11117;48.644;9.006;2024-03-06T13:40:59;26.33;;;15.27;;
21905;SDS011;11117;48.644;9.006;2024-03-06T13:43:24;27.03;;;14.17;;
21905;SDS011;11117;48.644;9.006;2024-03-06T13:45:50;28.20;;;17.43;;
21905;SDS011;11117;48.644;9.006;2024-03-06T13:48:16;28.13;;;17.90;;
21905;SDS011;11117;48.644;9.006;2024-03-06T13:50:45;25.57;;;14.63;;
21905;SDS011;11117;48.644;9.006;2024-03-06T13:53:12;27.83;;;16.40;;
21905;SDS011;11117;48.644;9.006;2024-03-06T13:55:37;26.73;;;16.73;;
21905;SDS011;11117;48.644;9.006;2024-03-06T13:58:03;24.43;;;16.27;;
21905;SDS011;11117;48.644;9.006;2024-03-06T14:00:29;26.20;;;16.63;;
21905;SDS011;11117;48.644;9.006;2024-03-06T14:02:54;22.27;;;13.77;;
21905;SDS011;11117;48.644;9.006;2024-03-06T14:05:20;29.13;;;17.67;;
21905;SDS011;11117;48.644;9.006;2024-03-06T14:07:46;28.83;;;17.30;;
21905;SDS011;11117;48.644;9.006;2024-03-06T14:10:12;30.77;;;16.90;;
21905;SDS011;11117;48.644;9.006;2024-03-06T14:12:37;27.37;;;17.07;;
21905;SDS011;11117;48.644;9.006;2024-03-06T14:15:04;27.30;;;17.60;;
21905;SDS011;11117;48.644;9.006;2024-03-06T14:17:30;26.60;;;17.37;;
21905;SDS011;11117;48.644;9.006;2024-03-06T14:19:56;18.37;;;11.00;;
21905;SDS011;11117;48.644;9.006;2024-03-06T14:22:22;28.07;;;17.40;;
21905;SDS011;11117;48.644;9.006;2024-03-06T14:24:48;26.63;;;15.10;;
21905;SDS011;11117;48.644;9.006;2024-03-06T14:27:14;16.47;;;9.97;;
21905;SDS011;11117;48.644;9.006;2024-03-06T14:29:39;25.73;;;14.80;;
21905;SDS011;11117;48.644;9.006;2024-03-06T14:32:05;27.20;;;16.70;;
21905;SDS011;11117;48.644;9.006;2024-03-06T14:34:31;26.30;;;14.73;;
21905;SDS011;11117;48.644;9.006;2024-03-06T14:36:56;26.73;;;16.97;;
21905;SDS011;11117;48.644;9.006;2024-03-06T14:39:22;29.40;;;17.37;;
21905;SDS011;11117;48.644;9.006;2024-03-06T14:41:48;26.40;;;16.80;;